createdAt,value
2022-12-03T00:00:33.358Z,40.17
2022-12-03T00:02:59.987Z,43.58
2022-12-03T00:05:26.544Z,45.97
2022-12-03T00:07:53.128Z,44.45
2022-12-03T00:10:19.850Z,41.88
2022-12-03T00:12:47.222Z,49.92
2022-12-03T00:15:13.639Z,41.88
2022-12-03T00:17:40.360Z,44.38
2022-12-03T00:20:18.222Z,46.50
2022-12-03T00:22:44.835Z,45.08
2022-12-03T00:25:11.281Z,41.03
2022-12-03T00:27:37.871Z,41.15
2022-12-03T00:30:05.115Z,41.03
2022-12-03T00:32:31.536Z,41.63
2022-12-03T00:34:58.078Z,41.22
2022-12-03T00:37:24.538Z,43.13
2022-12-03T00:39:50.953Z,44.63
2022-12-03T00:42:17.333Z,41.33
2022-12-03T00:44:43.799Z,41.53
2022-12-03T00:47:10.668Z,44.85
2022-12-03T00:49:37.136Z,37.72
2022-12-03T00:52:03.816Z,38.30
2022-12-03T00:54:32.338Z,42.13
2022-12-03T00:56:58.903Z,40.97
2022-12-03T00:59:25.455Z,41.70
2022-12-03T01:01:52.036Z,42.53
2022-12-03T01:04:18.617Z,45.03
2022-12-03T01:06:45.090Z,44.20
2022-12-03T01:09:11.517Z,43.50
2022-12-03T01:11:38.022Z,47.28
2022-12-03T01:14:06.519Z,42.85
2022-12-03T01:16:33.430Z,44.22
2022-12-03T01:18:59.957Z,49.53
2022-12-03T01:21:26.410Z,46.88
2022-12-03T01:23:52.916Z,43.08
2022-12-03T01:26:19.601Z,45.63
2022-12-03T01:28:46.077Z,49.88
2022-12-03T01:31:31.232Z,46.40
2022-12-03T01:33:57.780Z,45.20
2022-12-03T01:36:24.218Z,43.83
2022-12-03T01:38:50.720Z,44.30
2022-12-03T01:41:18.557Z,43.65
2022-12-03T01:43:46.005Z,47.72
2022-12-03T01:46:14.731Z,45.90
2022-12-03T01:48:41.316Z,51.60
2022-12-03T01:51:08.188Z,56.65
2022-12-03T01:53:34.695Z,47.45
2022-12-03T01:56:01.184Z,54.25
2022-12-03T01:58:29.468Z,46.90
2022-12-03T02:01:01.482Z,46.75
2022-12-03T02:03:28.482Z,52.85
2022-12-03T02:05:56.797Z,53.13
2022-12-03T02:08:32.268Z,56.70
2022-12-03T02:11:02.901Z,62.13
2022-12-03T02:13:29.480Z,50.17
2022-12-03T02:15:56.310Z,52.97
2022-12-03T02:18:23.017Z,48.15
2022-12-03T02:21:21.821Z,50.33
2022-12-03T02:24:18.318Z,54.78
2022-12-03T02:26:44.911Z,55.90
2022-12-03T02:29:11.494Z,54.58
2022-12-03T02:31:38.191Z,51.53
2022-12-03T02:34:08.647Z,57.10
2022-12-03T02:36:36.136Z,54.35
2022-12-03T02:39:05.017Z,52.55
2022-12-03T02:41:50.176Z,54.60
2022-12-03T02:44:16.840Z,49.40
2022-12-03T02:46:43.308Z,58.75
2022-12-03T02:49:10.162Z,50.58
2022-12-03T02:51:36.575Z,54.88
2022-12-03T02:54:03.643Z,51.25
2022-12-03T02:56:32.427Z,48.47
2022-12-03T02:59:02.080Z,55.13
2022-12-03T03:01:28.728Z,52.17
2022-12-03T03:03:55.921Z,50.53
2022-12-03T03:06:22.450Z,57.90
2022-12-03T03:08:49.173Z,54.90
2022-12-03T03:11:15.714Z,53.80
2022-12-03T03:13:42.570Z,54.72
2022-12-03T03:16:09.422Z,52.72
2022-12-03T03:18:36.903Z,51.78
2022-12-03T03:21:04.362Z,54.42
2022-12-03T03:23:31.178Z,54.33
2022-12-03T03:26:01.599Z,54.03
2022-12-03T03:28:29.951Z,56.67
2022-12-03T03:30:58.300Z,55.83
2022-12-03T03:33:27.809Z,51.17
2022-12-03T03:35:54.558Z,50.83
2022-12-03T03:38:23.655Z,56.60
2022-12-03T03:40:51.911Z,55.33
2022-12-03T03:43:20.171Z,57.47
2022-12-03T03:45:46.966Z,57.78
2022-12-03T03:48:14.031Z,55.28
2022-12-03T03:50:41.985Z,57.88
2022-12-03T03:53:08.745Z,53.85
2022-12-03T03:55:35.374Z,57.33
2022-12-03T03:58:02.051Z,61.22
2022-12-03T04:00:29.507Z,52.58
2022-12-03T04:02:56.343Z,53.42
2022-12-03T04:05:24.836Z,55.45
2022-12-03T04:07:51.551Z,52.53
2022-12-03T04:10:36.725Z,63.17
2022-12-03T04:13:03.838Z,51.47
2022-12-03T04:15:30.514Z,55.92
2022-12-03T04:18:15.435Z,50.70
2022-12-03T04:20:42.000Z,51.70
2022-12-03T04:23:08.738Z,57.75
2022-12-03T04:25:53.784Z,51.33
2022-12-03T04:28:39.288Z,56.10
2022-12-03T04:31:26.537Z,55.72
2022-12-03T04:34:12.481Z,52.08
2022-12-03T04:36:41.315Z,50.72
2022-12-03T04:39:07.818Z,57.80
2022-12-03T04:41:34.309Z,52.55
2022-12-03T04:44:19.279Z,59.00
2022-12-03T04:46:46.488Z,59.17
2022-12-03T04:49:12.996Z,56.20
2022-12-03T04:51:39.535Z,61.72
2022-12-03T04:54:06.152Z,56.35
2022-12-03T04:56:32.757Z,55.20
2022-12-03T04:58:59.318Z,61.05
2022-12-03T05:01:25.859Z,60.35
2022-12-03T05:03:52.384Z,58.08
2022-12-03T05:06:18.870Z,61.42
2022-12-03T05:08:45.335Z,51.92
2022-12-03T05:11:11.900Z,59.42
2022-12-03T05:13:38.349Z,63.42
2022-12-03T05:16:04.960Z,52.78
2022-12-03T05:18:31.389Z,52.33
2022-12-03T05:20:58.248Z,56.72
2022-12-03T05:23:24.772Z,54.50
2022-12-03T05:25:51.600Z,49.65
2022-12-03T05:28:18.258Z,52.90
2022-12-03T05:30:44.921Z,52.50
2022-12-03T05:33:11.581Z,54.88
2022-12-03T05:35:38.106Z,49.53
2022-12-03T05:38:04.580Z,44.17
2022-12-03T05:40:31.196Z,56.92
2022-12-03T05:42:57.874Z,51.80
2022-12-03T05:45:26.647Z,51.08
2022-12-03T05:47:54.694Z,48.25
2022-12-03T05:50:23.076Z,49.88
2022-12-03T05:52:50.031Z,55.92
2022-12-03T05:55:17.082Z,56.35
2022-12-03T05:57:43.998Z,53.60
2022-12-03T06:00:25.184Z,56.38
2022-12-03T06:02:52.342Z,51.75
2022-12-03T06:05:19.877Z,57.55
2022-12-03T06:07:47.967Z,61.25
2022-12-03T06:10:17.737Z,59.30
2022-12-03T06:12:44.161Z,56.08
2022-12-03T06:15:11.327Z,63.13
2022-12-03T06:17:38.312Z,56.80
2022-12-03T06:20:05.637Z,55.60
2022-12-03T06:22:32.266Z,56.45
2022-12-03T06:25:03.559Z,59.72
2022-12-03T06:27:33.001Z,59.85
2022-12-03T06:29:59.498Z,60.28
2022-12-03T06:32:25.948Z,51.70
2022-12-03T06:34:52.715Z,61.50
2022-12-03T06:37:19.389Z,61.63
2022-12-03T06:39:45.860Z,59.10
2022-12-03T06:42:12.401Z,51.40
2022-12-03T06:44:38.794Z,58.63
2022-12-03T06:47:05.201Z,63.55
2022-12-03T06:49:31.719Z,59.63
2022-12-03T06:51:58.124Z,56.95
2022-12-03T06:54:24.587Z,59.28
2022-12-03T06:56:51.004Z,61.40
2022-12-03T06:59:17.507Z,61.53
2022-12-03T07:01:44.301Z,57.70
2022-12-03T07:04:10.821Z,60.92
2022-12-03T07:06:37.336Z,58.58
2022-12-03T07:09:03.888Z,58.45
2022-12-03T07:11:33.040Z,58.85
2022-12-03T07:14:05.164Z,56.55
2022-12-03T07:16:31.828Z,58.00
2022-12-03T07:18:58.318Z,64.32
2022-12-03T07:21:24.752Z,68.45
2022-12-03T07:23:51.198Z,65.15
2022-12-03T07:26:17.712Z,59.17
2022-12-03T07:28:44.168Z,58.60
2022-12-03T07:31:10.644Z,60.75
2022-12-03T07:33:37.159Z,62.75
2022-12-03T07:36:03.770Z,56.30
2022-12-03T07:38:30.167Z,58.17
2022-12-03T07:40:56.616Z,62.72
2022-12-03T07:43:24.207Z,60.38
2022-12-03T07:45:50.826Z,56.50
2022-12-03T07:48:17.455Z,58.83
2022-12-03T07:50:44.002Z,64.03
2022-12-03T07:53:10.571Z,64.10
2022-12-03T07:55:37.112Z,58.78
2022-12-03T07:58:03.628Z,64.13
2022-12-03T08:00:30.224Z,64.35
2022-12-03T08:02:56.733Z,62.35
2022-12-03T08:05:23.333Z,60.58
2022-12-03T08:07:49.772Z,56.55
2022-12-03T08:10:16.323Z,60.28
2022-12-03T08:12:42.845Z,62.40
2022-12-03T08:15:21.214Z,62.25
2022-12-03T08:17:53.773Z,60.40
2022-12-03T08:20:28.845Z,64.68
2022-12-03T08:22:59.144Z,60.67
2022-12-03T08:28:19.026Z,60.47
2022-12-03T08:30:55.997Z,53.83
2022-12-03T08:33:28.138Z,62.47
2022-12-03T08:35:55.323Z,61.42
2022-12-03T08:38:24.374Z,59.13
2022-12-03T08:40:52.891Z,63.95
2022-12-03T08:43:21.259Z,62.47
2022-12-03T08:45:49.777Z,61.80
2022-12-03T08:48:19.318Z,62.30
2022-12-03T08:50:46.454Z,73.28
2022-12-03T08:53:29.788Z,65.25
2022-12-03T08:56:02.172Z,61.70
2022-12-03T08:58:36.586Z,71.60
2022-12-03T09:01:24.396Z,71.75
2022-12-03T09:03:55.562Z,63.00
2022-12-03T09:06:22.845Z,57.45
2022-12-03T09:08:49.249Z,59.17
2022-12-03T09:11:15.863Z,68.43
2022-12-03T09:13:42.358Z,62.78
2022-12-03T09:16:08.801Z,67.68
2022-12-03T09:18:35.317Z,60.50
2022-12-03T09:21:01.697Z,59.30
2022-12-03T09:23:28.314Z,61.25
2022-12-03T09:25:54.804Z,58.38
2022-12-03T09:28:21.251Z,62.25
2022-12-03T09:30:47.671Z,58.13
2022-12-03T09:33:14.158Z,61.97
2022-12-03T09:35:40.638Z,67.95
2022-12-03T09:38:07.151Z,52.50
2022-12-03T09:40:34.141Z,59.13
2022-12-03T09:43:00.970Z,59.42
2022-12-03T09:45:27.550Z,59.85
2022-12-03T09:47:55.284Z,65.22
2022-12-03T09:50:26.308Z,54.33
2022-12-03T09:52:55.273Z,57.90
2022-12-03T09:55:28.197Z,54.78
2022-12-03T09:57:56.320Z,55.90
2022-12-03T10:00:29.253Z,55.45
2022-12-03T10:03:02.881Z,49.33
2022-12-03T10:05:29.385Z,48.58
2022-12-03T10:08:04.257Z,51.50
2022-12-03T10:10:30.958Z,55.35
2022-12-03T10:12:57.520Z,60.75
2022-12-03T10:15:24.350Z,58.55
2022-12-03T10:17:54.546Z,55.42
2022-12-03T10:22:49.416Z,53.92
2022-12-03T10:25:18.606Z,48.63
2022-12-03T10:27:57.964Z,47.08
2022-12-03T10:30:28.001Z,56.77
2022-12-03T10:32:57.009Z,47.80
2022-12-03T10:35:26.309Z,44.33
2022-12-03T10:37:57.156Z,49.47
2022-12-03T10:40:35.801Z,45.75
2022-12-03T10:43:14.469Z,45.83
2022-12-03T10:45:42.555Z,49.65
2022-12-03T10:48:20.509Z,47.80
2022-12-03T10:50:55.749Z,44.33
2022-12-03T10:53:27.183Z,47.70
2022-12-03T10:55:59.330Z,47.72
2022-12-03T10:58:28.863Z,49.65
2022-12-03T11:00:57.960Z,47.75
2022-12-03T11:03:27.187Z,46.00
2022-12-03T11:05:55.501Z,51.58
2022-12-03T11:08:27.910Z,46.63
2022-12-03T11:11:00.730Z,54.00
2022-12-03T11:13:34.880Z,41.78
2022-12-03T11:16:03.968Z,49.50
2022-12-03T11:18:36.534Z,48.65
2022-12-03T11:21:05.584Z,45.33
2022-12-03T11:23:44.217Z,51.92
2022-12-03T11:26:19.766Z,49.88
2022-12-03T11:28:46.490Z,49.03
2022-12-03T11:31:35.589Z,42.95
2022-12-03T11:34:20.576Z,53.92
2022-12-03T11:37:11.831Z,47.40
2022-12-03T11:39:59.368Z,50.03
2022-12-03T11:42:25.817Z,48.55
2022-12-03T11:45:04.792Z,50.88
2022-12-03T11:47:42.265Z,52.03
2022-12-03T11:50:17.876Z,50.25
2022-12-03T11:52:47.164Z,55.53
2022-12-03T11:55:25.241Z,51.23
2022-12-03T11:57:58.417Z,47.47
2022-12-03T12:00:25.572Z,54.45
2022-12-03T12:02:53.960Z,49.45
2022-12-03T12:05:33.467Z,50.72
2022-12-03T12:08:02.764Z,53.05
2022-12-03T12:10:38.949Z,53.50
2022-12-03T12:13:05.776Z,51.45
2022-12-03T12:15:38.202Z,50.30
2022-12-03T12:18:33.539Z,52.03
2022-12-03T12:21:37.497Z,51.80
2022-12-03T12:24:40.445Z,48.42
2022-12-03T12:27:27.173Z,43.25
2022-12-03T12:30:01.843Z,51.63
2022-12-03T12:32:31.571Z,50.92
2022-12-03T12:35:22.434Z,45.72
2022-12-03T12:38:00.157Z,52.83
2022-12-03T12:40:32.805Z,47.15
2022-12-03T12:43:11.577Z,54.40
2022-12-03T12:45:43.017Z,50.22
2022-12-03T12:48:15.172Z,53.42
2022-12-03T12:50:44.298Z,52.53
2022-12-03T12:53:10.687Z,46.97
2022-12-03T12:55:38.897Z,48.67
2022-12-03T12:58:15.448Z,45.38
2022-12-03T13:00:42.116Z,54.50
2022-12-03T13:03:10.722Z,45.83
2022-12-03T13:05:45.755Z,51.03
2022-12-03T13:08:27.793Z,48.67
2022-12-03T13:10:56.626Z,47.50
2022-12-03T13:13:44.034Z,58.95
2022-12-03T13:16:26.499Z,49.38
2022-12-03T13:18:55.460Z,53.15
2022-12-03T13:21:43.421Z,51.55
2022-12-03T13:24:30.389Z,50.55
2022-12-03T13:26:57.466Z,50.97
2022-12-03T13:29:25.616Z,50.97
2022-12-03T13:32:11.912Z,46.70
2022-12-03T13:34:38.523Z,46.58
2022-12-03T13:37:13.781Z,45.83
2022-12-03T13:39:46.387Z,48.13
2022-12-03T13:42:37.566Z,47.47
2022-12-03T13:45:24.791Z,52.20
2022-12-03T13:48:03.611Z,48.45
2022-12-03T13:50:41.007Z,56.13
2022-12-03T13:53:33.175Z,56.55
2022-12-03T13:56:31.765Z,50.50
2022-12-03T13:59:00.300Z,63.25
2022-12-03T14:01:27.662Z,60.85
2022-12-03T14:03:56.659Z,60.22
2022-12-03T14:06:23.153Z,55.08
2022-12-03T14:08:49.690Z,58.38
2022-12-03T14:11:34.658Z,80.72
2022-12-03T14:14:01.256Z,65.18
2022-12-03T14:16:27.817Z,65.68
2022-12-03T14:18:54.537Z,65.78
2022-12-03T14:21:20.960Z,69.28
2022-12-03T14:23:47.556Z,85.75
2022-12-03T14:26:14.007Z,74.65
2022-12-03T14:28:40.592Z,62.13
2022-12-03T14:31:07.039Z,54.75
2022-12-03T14:33:33.741Z,47.42
2022-12-03T14:36:00.458Z,49.65
2022-12-03T14:38:26.997Z,54.28
2022-12-03T14:40:53.476Z,51.20
2022-12-03T14:43:19.881Z,44.33
2022-12-03T14:45:46.431Z,45.10
2022-12-03T14:48:12.881Z,52.03
2022-12-03T14:50:39.432Z,45.03
2022-12-03T14:53:05.863Z,44.20
2022-12-03T14:55:32.376Z,45.67
2022-12-03T14:57:58.768Z,53.25
2022-12-03T15:00:25.674Z,52.03
2022-12-03T15:02:52.224Z,59.88
2022-12-03T15:05:26.459Z,52.65
2022-12-03T15:07:54.936Z,50.80
2022-12-03T15:10:21.404Z,54.15
2022-12-03T15:12:47.889Z,52.88
2022-12-03T15:15:14.373Z,56.38
2022-12-03T15:17:41.754Z,55.95
2022-12-03T15:20:08.798Z,55.00
2022-12-03T15:22:35.268Z,52.85
2022-12-03T15:25:03.333Z,55.92
2022-12-03T15:27:29.822Z,51.63
2022-12-03T15:29:56.469Z,53.83
2022-12-03T15:32:23.054Z,54.50
2022-12-03T15:34:51.296Z,54.25
2022-12-03T15:37:17.818Z,53.58
2022-12-03T15:39:48.324Z,49.30
2022-12-03T15:42:15.349Z,52.88
2022-12-03T15:44:41.770Z,50.42
2022-12-03T15:47:08.189Z,53.33
2022-12-03T15:49:34.590Z,48.60
2022-12-03T15:52:01.085Z,45.92
2022-12-03T15:54:27.499Z,49.60
2022-12-03T15:56:57.236Z,45.97
2022-12-03T16:01:52.903Z,42.70
2022-12-03T16:04:19.400Z,49.83
2022-12-03T16:06:45.840Z,44.33
2022-12-03T16:09:12.236Z,46.97
2022-12-03T16:11:38.794Z,50.67
2022-12-03T16:14:05.188Z,51.58
2022-12-03T16:16:31.670Z,45.97
2022-12-03T16:18:58.221Z,47.53
2022-12-03T16:21:26.993Z,45.50
2022-12-03T16:23:54.308Z,41.45
2022-12-03T16:26:21.191Z,47.15
2022-12-03T16:28:47.795Z,50.65
2022-12-03T16:31:14.446Z,62.45
2022-12-03T16:33:40.864Z,58.67
2022-12-03T16:36:07.580Z,54.95
2022-12-03T16:38:34.045Z,54.90
2022-12-03T16:41:01.302Z,46.70
2022-12-03T16:43:28.119Z,47.83
2022-12-03T16:46:14.635Z,50.55
2022-12-03T16:48:41.696Z,45.88
2022-12-03T16:51:08.291Z,45.60
2022-12-03T16:53:34.865Z,40.22
2022-12-03T16:56:02.264Z,42.83
2022-12-03T16:58:28.813Z,49.53
2022-12-03T17:00:55.509Z,45.38
2022-12-03T17:03:22.787Z,44.35
2022-12-03T17:05:49.524Z,45.67
2022-12-03T17:08:16.386Z,45.65
2022-12-03T17:10:43.972Z,43.80
2022-12-03T17:13:13.336Z,47.22
2022-12-03T17:15:40.998Z,45.43
2022-12-03T17:18:08.516Z,49.85
2022-12-03T17:20:35.585Z,51.40
2022-12-03T17:23:02.191Z,46.40
2022-12-03T17:25:28.992Z,46.15
2022-12-03T17:27:55.815Z,44.50
2022-12-03T17:30:22.383Z,50.22
2022-12-03T17:32:50.349Z,45.58
2022-12-03T17:35:17.393Z,48.33
2022-12-03T17:37:43.846Z,53.38
2022-12-03T17:40:14.316Z,53.33
2022-12-03T17:42:40.788Z,51.05
2022-12-03T17:45:07.968Z,48.40
2022-12-03T17:47:34.362Z,46.10
2022-12-03T17:50:00.773Z,59.00
2022-12-03T17:52:27.182Z,51.25
2022-12-03T17:55:10.958Z,50.92
2022-12-03T17:57:39.653Z,49.33
2022-12-03T18:00:06.857Z,49.67
2022-12-03T18:02:33.257Z,48.33
2022-12-03T18:04:59.687Z,50.65
2022-12-03T18:07:26.180Z,48.25
2022-12-03T18:09:53.359Z,48.30
2022-12-03T18:12:19.948Z,51.22
2022-12-03T18:14:46.365Z,50.10
2022-12-03T18:17:13.781Z,54.63
2022-12-03T18:19:40.426Z,51.83
2022-12-03T18:22:07.030Z,55.75
2022-12-03T18:24:33.501Z,49.83
2022-12-03T18:26:59.999Z,49.75
2022-12-03T18:29:26.657Z,55.25
2022-12-03T18:31:53.166Z,54.80
2022-12-03T18:34:19.703Z,52.28
2022-12-03T18:36:46.545Z,51.72
2022-12-03T18:39:25.552Z,55.90
2022-12-03T18:41:53.137Z,49.95
2022-12-03T18:44:19.677Z,50.85
2022-12-03T18:46:53.327Z,47.97
2022-12-03T18:49:20.944Z,51.83
2022-12-03T18:51:48.458Z,48.97
2022-12-03T18:54:15.426Z,52.10
2022-12-03T18:56:41.984Z,46.63
2022-12-03T18:59:09.418Z,51.65
2022-12-03T19:01:36.299Z,52.08
2022-12-03T19:04:03.776Z,51.67
2022-12-03T19:06:30.551Z,54.97
2022-12-03T19:08:57.960Z,57.35
2022-12-03T19:11:24.618Z,51.67
2022-12-03T19:13:51.885Z,51.63
2022-12-03T19:16:18.625Z,54.40
2022-12-03T19:18:45.801Z,52.28
2022-12-03T19:21:15.339Z,53.30
2022-12-03T19:23:58.883Z,50.05
2022-12-03T19:26:29.622Z,52.97
2022-12-03T19:28:56.355Z,57.80
2022-12-03T19:31:22.905Z,59.10
2022-12-03T19:33:50.671Z,58.75
2022-12-03T19:36:26.692Z,75.70
2022-12-03T19:38:57.389Z,75.45
2022-12-03T19:41:27.189Z,81.10
2022-12-03T19:43:55.317Z,82.55
2022-12-03T19:46:24.066Z,72.88
2022-12-03T19:48:51.373Z,73.90
2022-12-03T19:51:34.175Z,81.60
2022-12-03T19:54:02.421Z,89.55
2022-12-03T19:56:30.372Z,84.60
2022-12-03T19:58:57.722Z,80.22
2022-12-03T20:01:27.101Z,83.35
2022-12-03T20:03:57.678Z,84.75
2022-12-03T20:06:27.225Z,80.75
2022-12-03T20:08:58.483Z,84.97
2022-12-03T20:11:31.398Z,79.65
2022-12-03T20:14:00.101Z,78.68
2022-12-03T20:16:27.703Z,81.78
2022-12-03T20:19:00.192Z,90.40
2022-12-03T20:21:28.675Z,84.97
2022-12-03T20:23:55.661Z,78.55
2022-12-03T20:26:23.103Z,83.25
2022-12-03T20:28:50.095Z,83.28
2022-12-03T20:31:18.843Z,86.35
2022-12-03T20:33:48.437Z,85.72
2022-12-03T20:36:17.887Z,81.47
2022-12-03T20:38:44.928Z,82.43
2022-12-03T20:41:14.438Z,81.20
2022-12-03T20:43:40.966Z,72.43
2022-12-03T20:46:17.743Z,74.30
2022-12-03T20:48:45.325Z,67.88
2022-12-03T20:51:20.694Z,72.55
2022-12-03T20:53:47.546Z,71.72
2022-12-03T20:56:25.930Z,86.40
2022-12-03T20:58:53.659Z,77.47
2022-12-03T21:01:27.825Z,76.22
2022-12-03T21:03:56.459Z,77.38
2022-12-03T21:06:25.425Z,84.60
2022-12-03T21:08:57.041Z,81.35
2022-12-03T21:11:25.942Z,80.65
2022-12-03T21:13:54.528Z,77.22
2022-12-03T21:16:51.921Z,79.50
2022-12-03T21:19:11.976Z,74.25
2022-12-03T21:21:38.370Z,84.00
2022-12-03T21:24:05.003Z,77.28
2022-12-03T21:26:31.569Z,85.57
2022-12-03T21:28:58.083Z,81.28
2022-12-03T21:31:26.630Z,84.65
2022-12-03T21:33:54.475Z,76.72
2022-12-03T21:36:21.005Z,82.18
2022-12-03T21:38:48.160Z,85.72
2022-12-03T21:41:15.134Z,82.82
2022-12-03T21:43:42.468Z,76.43
2022-12-03T21:47:10.568Z,76.28
2022-12-03T21:48:59.779Z,81.70
2022-12-03T21:51:26.217Z,85.45
2022-12-03T21:53:53.245Z,79.13
2022-12-03T21:56:20.225Z,87.25
2022-12-03T21:58:47.334Z,87.38
2022-12-03T22:01:20.494Z,86.53
2022-12-03T22:03:47.906Z,79.75
2022-12-03T22:06:15.272Z,83.40
2022-12-03T22:08:42.084Z,81.18
2022-12-03T22:11:14.335Z,81.35
2022-12-03T22:13:41.827Z,80.65
2022-12-03T22:16:11.110Z,86.88
2022-12-03T22:18:38.270Z,77.83
2022-12-03T22:21:13.783Z,82.40
2022-12-03T22:23:40.914Z,87.43
2022-12-03T22:26:10.464Z,81.22
2022-12-03T22:28:37.214Z,85.53
2022-12-03T22:31:07.963Z,89.80
2022-12-03T22:33:35.679Z,89.00
2022-12-03T22:36:06.413Z,82.40
2022-12-03T22:38:33.091Z,93.40
2022-12-03T22:41:00.193Z,89.45
2022-12-03T22:43:26.922Z,91.63
2022-12-03T22:45:56.543Z,96.03
2022-12-03T22:48:24.492Z,88.30
2022-12-03T22:50:52.518Z,98.20
2022-12-03T22:53:19.916Z,94.63
2022-12-03T22:55:57.702Z,99.65
2022-12-03T22:58:28.019Z,95.07
2022-12-03T23:01:01.281Z,93.47
2022-12-03T23:03:29.267Z,97.50
2022-12-03T23:05:55.768Z,98.85
2022-12-03T23:08:23.462Z,100.63
2022-12-03T23:10:52.491Z,109.35
2022-12-03T23:13:20.284Z,103.50
2022-12-03T23:15:49.337Z,121.05
2022-12-03T23:18:16.514Z,96.68
2022-12-03T23:20:52.286Z,108.65
2022-12-03T23:23:20.936Z,119.63
2022-12-03T23:26:05.256Z,107.05
2022-12-03T23:28:33.363Z,105.22
2022-12-03T23:31:00.221Z,104.43
2022-12-03T23:33:27.274Z,102.40
2022-12-03T23:35:53.721Z,104.95
2022-12-03T23:38:20.403Z,113.15
2022-12-03T23:40:48.419Z,108.00
2022-12-03T23:43:15.565Z,108.65
2022-12-03T23:45:42.050Z,106.40
2022-12-03T23:48:08.654Z,111.97
2022-12-03T23:50:38.145Z,105.18
2022-12-03T23:53:04.690Z,98.78
2022-12-03T23:55:31.154Z,101.68
2022-12-03T23:57:57.625Z,101.13
